Weather reports worldwide

Advertisment
Crotone, Italy (16350): temperature & dewpoint: 12.10.2018 19:00:00 - 18.10.2018 19:00:00 (CEST)Crotone, Italy (16350): wind speed: 12.10.2018 19:00:00 - 18.10.2018 19:00:00 (CEST)Crotone, Italy (16350): wind direction: 12.10.2018 19:00:00 - 18.10.2018 19:00:00 (CEST)Crotone, Italy (16350): visibility: 12.10.2018 19:00:00 - 18.10.2018 19:00:00 (CEST)
Date & Time tt [°C] td [°C] ff [km/h] ff [kn] dd vv [km]
18.10.2018 19:00:00 - - - - - -
18.10.2018 18:00:00 20,0 17,0 8 4 ESE 10
18.10.2018 17:00:00 20,0 17,0 5 3 ESE 10
18.10.2018 16:00:00 21,0 17,0 13 7 E 10
18.10.2018 15:00:00 22,0 17,0 11 6 E 10
18.10.2018 14:00:00 21,0 17,0 11 6 E 10
18.10.2018 13:00:00 22,0 17,0 9 5 E 10
18.10.2018 12:00:00 22,0 17,0 9 5 E 10
18.10.2018 11:00:00 20,0 18,0 5 3 E 10
18.10.2018 10:00:00 19,0 18,0 8 4 N 10
18.10.2018 09:00:00 18,0 18,0 9 5 NNE 10
18.10.2018 08:00:00 17,0 17,0 5 3 N 10
18.10.2018 07:00:00 - - - - - -
18.10.2018 06:00:00 - - - - - -
18.10.2018 05:00:00 - - - - - -
18.10.2018 04:00:00 - - - - - -
18.10.2018 03:00:00 - - - - - -
18.10.2018 02:00:00 - - - - - -
18.10.2018 01:00:00 - - - - - -
18.10.2018 00:00:00 - - - - - -
17.10.2018 23:00:00 - - - - - -
17.10.2018 22:00:00 - - - - - -
17.10.2018 21:00:00 - - - - - -
17.10.2018 20:00:00 18,0 17,0 4 2 - 10
17.10.2018 19:00:00 19,0 18,0 4 2 - 10
17.10.2018 18:00:00 20,0 18,0 4 2 S 10
17.10.2018 17:00:00 21,0 18,0 8 4 S 10
17.10.2018 16:00:00 22,0 18,0 11 6 S 10
17.10.2018 15:00:00 22,0 18,0 11 6 SSE 10
17.10.2018 14:00:00 21,0 19,0 5 3 NE 10
17.10.2018 13:00:00 21,0 19,0 5 3 - 10
17.10.2018 12:00:00 19,0 18,0 5 3 NNW 10
17.10.2018 11:00:00 19,0 18,0 16 9 WSW 4,0
17.10.2018 10:00:00 19,0 19,0 4 2 - 10
17.10.2018 09:00:00 19,0 18,0 4 2 - 10
17.10.2018 08:00:00 18,0 18,0 0 0 N 10
17.10.2018 07:00:00 - - - - - -
17.10.2018 06:00:00 - - - - - -
17.10.2018 05:00:00 - - - - - -
17.10.2018 04:00:00 - - - - - -
17.10.2018 03:00:00 - - - - - -
17.10.2018 02:00:00 - - - - - -
17.10.2018 01:00:00 - - - - - -
17.10.2018 00:00:00 - - - - - -
16.10.2018 23:00:00 - - - - - -
16.10.2018 22:00:00 - - - - - -
16.10.2018 21:00:00 - - - - - -
16.10.2018 20:00:00 19,0 19,0 0 0 N 10
16.10.2018 19:00:00 20,0 19,0 4 2 SE 10
16.10.2018 18:00:00 21,0 19,0 9 5 SSE 10
16.10.2018 17:00:00 21,0 19,0 9 5 SE 10
16.10.2018 16:00:00 22,0 18,0 13 7 SSE 10
16.10.2018 15:00:00 22,0 18,0 16 9 SSE 10
16.10.2018 14:00:00 23,0 18,0 13 7 SSE 10
16.10.2018 13:00:00 22,0 19,0 13 7 SE 10
16.10.2018 12:00:00 22,0 18,0 15 8 SE 10
16.10.2018 11:00:00 20,0 19,0 8 4 NW 10
16.10.2018 10:00:00 19,0 19,0 5 3 NNE 8
16.10.2018 09:00:00 19,0 18,0 8 4 N 10
16.10.2018 08:00:00 18,0 18,0 8 4 NW 10
16.10.2018 07:00:00 - - - - - -
16.10.2018 06:00:00 - - - - - -
16.10.2018 05:00:00 - - - - - -
16.10.2018 04:00:00 - - - - - -
16.10.2018 03:00:00 - - - - - -
16.10.2018 02:00:00 - - - - - -
16.10.2018 01:00:00 - - - - - -
16.10.2018 00:00:00 - - - - - -
15.10.2018 23:00:00 - - - - - -
15.10.2018 22:00:00 - - - - - -
15.10.2018 21:00:00 - - - - - -
15.10.2018 20:00:00 18,0 17,0 8 4 WSW 10
15.10.2018 19:00:00 18,0 17,0 9 5 S 10
15.10.2018 18:00:00 20,0 18,0 15 8 SSE 10
15.10.2018 17:00:00 20,0 18,0 18 10 SSE 10
15.10.2018 16:00:00 21,0 18,0 24 13 SE 10
15.10.2018 15:00:00 20,0 18,0 22 12 SE 10
15.10.2018 14:00:00 20,0 18,0 21 11 ESE 7
15.10.2018 13:00:00 21,0 18,0 24 13 SE 10
15.10.2018 12:00:00 21,0 19,0 26 14 ESE 10
15.10.2018 11:00:00 21,0 19,0 28 15 ESE 7
15.10.2018 10:00:00 21,0 19,0 28 15 ESE 7
15.10.2018 09:00:00 20,0 18,0 18 10 SE 7
15.10.2018 08:00:00 20,0 18,0 24 13 SE 10
15.10.2018 07:00:00 - - - - - -
15.10.2018 06:00:00 - - - - - -
15.10.2018 05:00:00 - - - - - -
15.10.2018 04:00:00 - - - - - -
15.10.2018 03:00:00 - - - - - -
15.10.2018 02:00:00 - - - - - -
15.10.2018 01:00:00 - - - - - -
15.10.2018 00:00:00 - - - - - -
14.10.2018 23:00:00 - - - - - -
14.10.2018 22:00:00 - - - - - -
14.10.2018 21:00:00 - - - - - -
14.10.2018 20:00:00 17,0 16,0 9 5 E 10
14.10.2018 19:00:00 17,0 17,0 11 6 N 10
14.10.2018 18:00:00 18,0 17,0 9 5 N 10
14.10.2018 17:00:00 18,0 17,0 5 3 N 9
14.10.2018 16:00:00 18,0 16,0 8 4 N 10
14.10.2018 15:00:00 17,0 16,0 11 6 SE 7
14.10.2018 14:00:00 21,0 15,0 9 5 E 10
14.10.2018 13:00:00 22,0 17,0 11 6 NE 10
14.10.2018 12:00:00 22,0 17,0 15 8 NNE 10
14.10.2018 11:00:00 20,0 17,0 15 8 N 10
14.10.2018 10:00:00 18,0 17,0 13 7 NNW 10
14.10.2018 09:00:00 17,0 16,0 11 6 NNW 10
14.10.2018 08:00:00 17,0 16,0 11 6 N 10
14.10.2018 07:00:00 - - - - - -
14.10.2018 06:00:00 - - - - - -
14.10.2018 05:00:00 - - - - - -
14.10.2018 04:00:00 - - - - - -
14.10.2018 03:00:00 - - - - - -
14.10.2018 02:00:00 - - - - - -
14.10.2018 01:00:00 - - - - - -
14.10.2018 00:00:00 - - - - - -
13.10.2018 23:00:00 - - - - - -
13.10.2018 22:00:00 - - - - - -
13.10.2018 21:00:00 - - - - - -
13.10.2018 20:00:00 - - - - - -
13.10.2018 19:00:00 18,0 16,0 9 5 NE 10
13.10.2018 18:00:00 20,0 15,0 11 6 NNE 10
13.10.2018 17:00:00 21,0 15,0 16 9 NNE 10
13.10.2018 16:00:00 22,0 16,0 15 8 NNE 10
13.10.2018 15:00:00 22,0 15,0 18 10 NNE 10
13.10.2018 14:00:00 22,0 16,0 21 11 NNE 10
13.10.2018 13:00:00 22,0 15,0 22 12 NNE 10
13.10.2018 12:00:00 22,0 15,0 21 11 NNE 10
13.10.2018 11:00:00 21,0 15,0 28 15 N 10
13.10.2018 10:00:00 20,0 15,0 29 16 N 10
13.10.2018 09:00:00 16,0 15,0 22 12 N 10
13.10.2018 08:00:00 16,0 14,0 15 8 N 10
13.10.2018 07:00:00 16,0 14,0 15 8 N 10
13.10.2018 06:00:00 - - - - - -
13.10.2018 05:00:00 - - - - - -
13.10.2018 04:00:00 - - - - - -
13.10.2018 03:00:00 - - - - - -
13.10.2018 02:00:00 - - - - - -
13.10.2018 01:00:00 - - - - - -
13.10.2018 00:00:00 - - - - - -
12.10.2018 23:00:00 - - - - - -
12.10.2018 22:00:00 - - - - - -
12.10.2018 21:00:00 - - - - - -
12.10.2018 20:00:00 17,0 15,0 9 5 N 10
12.10.2018 19:00:00 18,0 16,0 8 4 N 10

tt = temperature
td = dewpoint
ff = wind speed
dd = wind direction
vv = visibility

Next stations